sensor_id;sensor_type;location;lat;lon;timestamp;pressure;altitude;pressure_sealevel;temperature;humidity
58295;BME280;45705;55.592;37.460;2023-02-10T00:00:25;100154.88;;;-1.66;86.57
58295;BME280;45705;55.592;37.460;2023-02-10T00:02:50;100155.47;;;-1.71;87.82
58295;BME280;45705;55.592;37.460;2023-02-10T00:05:16;100162.28;;;-1.62;87.37
58295;BME280;45705;55.592;37.460;2023-02-10T00:07:42;100151.19;;;-1.65;86.93
58295;BME280;45705;55.592;37.460;2023-02-10T00:10:08;100153.66;;;-1.50;86.34
58295;BME280;45705;55.592;37.460;2023-02-10T00:12:37;100151.00;;;-1.50;86.82
58295;BME280;45705;55.592;37.460;2023-02-10T00:15:04;100151.84;;;-1.43;86.21
58295;BME280;45705;55.592;37.460;2023-02-10T00:17:30;100152.41;;;-1.68;86.97
58295;BME280;45705;55.592;37.460;2023-02-10T00:19:56;100142.59;;;-1.61;87.37
58295;BME280;45705;55.592;37.460;2023-02-10T00:22:22;100138.06;;;-1.60;86.69
58295;BME280;45705;55.592;37.460;2023-02-10T00:24:47;100133.75;;;-1.61;86.92
58295;BME280;45705;55.592;37.460;2023-02-10T00:27:13;100129.84;;;-1.85;87.21
58295;BME280;45705;55.592;37.460;2023-02-10T00:29:39;100120.03;;;-1.58;86.19
58295;BME280;45705;55.592;37.460;2023-02-10T00:35:10;100103.59;;;-1.62;84.22
58295;BME280;45705;55.592;37.460;2023-02-10T00:37:37;100102.56;;;-1.67;83.63
58295;BME280;45705;55.592;37.460;2023-02-10T00:40:03;100114.47;;;-1.70;83.68
58295;BME280;45705;55.592;37.460;2023-02-10T00:42:31;100110.19;;;-1.64;83.03
58295;BME280;45705;55.592;37.460;2023-02-10T00:44:56;100098.47;;;-1.63;82.94
58295;BME280;45705;55.592;37.460;2023-02-10T00:47:22;100097.88;;;-1.52;81.83
58295;BME280;45705;55.592;37.460;2023-02-10T00:49:53;100102.34;;;-1.99;82.79
58295;BME280;45705;55.592;37.460;2023-02-10T00:52:22;100104.81;;;-1.91;83.19
58295;BME280;45705;55.592;37.460;2023-02-10T00:54:48;100094.97;;;-1.90;83.82
58295;BME280;45705;55.592;37.460;2023-02-10T00:57:14;100099.91;;;-1.87;83.54
58295;BME280;45705;55.592;37.460;2023-02-10T00:59:39;100087.59;;;-1.75;83.13
58295;BME280;45705;55.592;37.460;2023-02-10T01:02:06;100086.16;;;-1.71;82.85
58295;BME280;45705;55.592;37.460;2023-02-10T01:04:32;100079.41;;;-1.67;82.80
58295;BME280;45705;55.592;37.460;2023-02-10T01:06:58;100079.81;;;-1.90;83.75
58295;BME280;45705;55.592;37.460;2023-02-10T01:09:24;100040.63;;;-2.16;85.31
58295;BME280;45705;55.592;37.460;2023-02-10T01:11:50;100059.72;;;-1.79;84.12
58295;BME280;45705;55.592;37.460;2023-02-10T01:14:16;100055.19;;;-1.65;84.23
58295;BME280;45705;55.592;37.460;2023-02-10T01:16:42;100053.56;;;-1.73;83.66
58295;BME280;45705;55.592;37.460;2023-02-10T01:19:08;100041.28;;;-1.74;83.53
58295;BME280;45705;55.592;37.460;2023-02-10T01:21:35;100044.97;;;-1.68;83.47
58295;BME280;45705;55.592;37.460;2023-02-10T01:24:05;100028.94;;;-1.62;83.13
58295;BME280;45705;55.592;37.460;2023-02-10T01:26:32;100010.09;;;-1.93;84.37
58295;BME280;45705;55.592;37.460;2023-02-10T01:28:58;100029.38;;;-1.78;84.22
58295;BME280;45705;55.592;37.460;2023-02-10T01:31:26;100030.59;;;-1.74;84.04
58295;BME280;45705;55.592;37.460;2023-02-10T01:33:54;100027.50;;;-1.71;84.85
58295;BME280;45705;55.592;37.460;2023-02-10T01:36:22;100010.88;;;-1.60;84.31
58295;BME280;45705;55.592;37.460;2023-02-10T01:38:49;99991.63;;;-1.88;84.90
58295;BME280;45705;55.592;37.460;2023-02-10T01:41:18;100004.75;;;-1.60;85.00
58295;BME280;45705;55.592;37.460;2023-02-10T01:44:04;100003.50;;;-1.51;84.56
58295;BME280;45705;55.592;37.460;2023-02-10T01:46:32;100003.50;;;-1.71;84.65
58295;BME280;45705;55.592;37.460;2023-02-10T01:49:08;100009.06;;;-1.72;84.79
58295;BME280;45705;55.592;37.460;2023-02-10T01:52:07;100001.06;;;-1.92;86.55
58295;BME280;45705;55.592;37.460;2023-02-10T01:54:39;100007.63;;;-2.08;86.92
58295;BME280;45705;55.592;37.460;2023-02-10T01:57:07;100009.28;;;-1.87;86.15
58295;BME280;45705;55.592;37.460;2023-02-10T01:59:35;99997.38;;;-2.25;87.45
58295;BME280;45705;55.592;37.460;2023-02-10T02:02:04;99997.78;;;-2.21;87.27
58295;BME280;45705;55.592;37.460;2023-02-10T02:05:02;99996.97;;;-2.08;87.15
58295;BME280;45705;55.592;37.460;2023-02-10T02:07:32;99997.00;;;-2.15;88.49
58295;BME280;45705;55.592;37.460;2023-02-10T02:10:03;99992.25;;;-2.20;87.78
58295;BME280;45705;55.592;37.460;2023-02-10T02:18:09;99977.91;;;-2.12;87.67
58295;BME280;45705;55.592;37.460;2023-02-10T02:23:50;99971.16;;;-2.08;87.99
58295;BME280;45705;55.592;37.460;2023-02-10T02:26:40;99971.13;;;-1.94;87.78
58295;BME280;45705;55.592;37.460;2023-02-10T02:34:53;99962.13;;;-2.07;88.40
58295;BME280;45705;55.592;37.460;2023-02-10T02:37:37;99961.09;;;-2.06;87.93
58295;BME280;45705;55.592;37.460;2023-02-10T02:40:05;99937.94;;;-2.12;88.25
58295;BME280;45705;55.592;37.460;2023-02-10T02:42:32;99944.91;;;-2.18;88.79
58295;BME280;45705;55.592;37.460;2023-02-10T02:45:14;99928.53;;;-2.34;90.25
58295;BME280;45705;55.592;37.460;2023-02-10T02:58:54;99911.53;;;-2.40;90.44
58295;BME280;45705;55.592;37.460;2023-02-10T03:01:26;99908.84;;;-2.33;90.76
58295;BME280;45705;55.592;37.460;2023-02-10T03:03:56;99909.69;;;-2.40;90.71
58295;BME280;45705;55.592;37.460;2023-02-10T03:06:23;99897.78;;;-2.24;90.32
58295;BME280;45705;55.592;37.460;2023-02-10T03:08:49;99897.19;;;-2.46;90.97
58295;BME280;45705;55.592;37.460;2023-02-10T03:11:16;99894.94;;;-2.35;90.98
58295;BME280;45705;55.592;37.460;2023-02-10T03:13:42;99887.56;;;-2.33;90.96
58295;BME280;45705;55.592;37.460;2023-02-10T03:16:08;99877.72;;;-2.26;90.66
58295;BME280;45705;55.592;37.460;2023-02-10T03:18:33;99861.53;;;-2.25;90.22
58295;BME280;45705;55.592;37.460;2023-02-10T03:20:59;99868.31;;;-2.35;90.73
58295;BME280;45705;55.592;37.460;2023-02-10T03:23:26;99877.31;;;-2.37;90.95
58295;BME280;45705;55.592;37.460;2023-02-10T03:25:51;99871.16;;;-2.24;90.24
58295;BME280;45705;55.592;37.460;2023-02-10T03:28:17;99844.94;;;-2.60;90.54
58295;BME280;45705;55.592;37.460;2023-02-10T03:30:44;99853.16;;;-2.62;92.46
58295;BME280;45705;55.592;37.460;2023-02-10T03:33:15;99839.63;;;-2.73;93.34
58295;BME280;45705;55.592;37.460;2023-02-10T03:35:42;99845.16;;;-2.82;94.53
58295;BME280;45705;55.592;37.460;2023-02-10T03:38:09;99820.81;;;-2.65;93.56
58295;BME280;45705;55.592;37.460;2023-02-10T03:40:35;99833.88;;;-2.97;94.79
58295;BME280;45705;55.592;37.460;2023-02-10T03:43:02;99823.22;;;-2.97;95.71
58295;BME280;45705;55.592;37.460;2023-02-10T03:45:29;99815.00;;;-3.22;96.71
58295;BME280;45705;55.592;37.460;2023-02-10T03:47:56;99811.34;;;-3.21;97.48
58295;BME280;45705;55.592;37.460;2023-02-10T03:50:21;99801.53;;;-3.21;97.67
58295;BME280;45705;55.592;37.460;2023-02-10T03:52:49;99807.66;;;-3.27;98.69
58295;BME280;45705;55.592;37.460;2023-02-10T03:55:15;99800.09;;;-3.03;97.88
58295;BME280;45705;55.592;37.460;2023-02-10T03:57:46;99806.88;;;-2.67;95.45
58295;BME280;45705;55.592;37.460;2023-02-10T04:00:13;99780.47;;;-2.69;93.47
58295;BME280;45705;55.592;37.460;2023-02-10T04:02:39;99789.28;;;-2.88;93.44
58295;BME280;45705;55.592;37.460;2023-02-10T04:05:06;99782.31;;;-2.69;94.37
58295;BME280;45705;55.592;37.460;2023-02-10T04:07:32;99788.03;;;-2.66;93.26
58295;BME280;45705;55.592;37.460;2023-02-10T04:09:58;99798.69;;;-2.59;93.71
58295;BME280;45705;55.592;37.460;2023-02-10T04:12:24;99776.56;;;-2.80;93.33
58295;BME280;45705;55.592;37.460;2023-02-10T04:14:49;99796.25;;;-2.67;94.04
58295;BME280;45705;55.592;37.460;2023-02-10T04:17:15;99794.19;;;-2.65;93.34
58295;BME280;45705;55.592;37.460;2023-02-10T04:19:41;99774.28;;;-2.56;93.06
58295;BME280;45705;55.592;37.460;2023-02-10T04:22:07;99778.00;;;-2.70;93.31
58295;BME280;45705;55.592;37.460;2023-02-10T04:24:33;99774.53;;;-2.91;94.79
58295;BME280;45705;55.592;37.460;2023-02-10T04:26:59;99776.78;;;-2.81;95.68
58295;BME280;45705;55.592;37.460;2023-02-10T04:29:24;99747.50;;;-2.74;93.70
58295;BME280;45705;55.592;37.460;2023-02-10T04:31:50;99762.03;;;-2.70;93.84
58295;BME280;45705;55.592;37.460;2023-02-10T04:34:16;99757.75;;;-2.71;93.57
58295;BME280;45705;55.592;37.460;2023-02-10T04:36:42;99763.09;;;-2.98;94.61
58295;BME280;45705;55.592;37.460;2023-02-10T04:39:08;99759.38;;;-2.84;95.77
58295;BME280;45705;55.592;37.460;2023-02-10T04:41:33;99769.19;;;-2.91;95.68
58295;BME280;45705;55.592;37.460;2023-02-10T04:44:00;99764.69;;;-3.17;98.32
58295;BME280;45705;55.592;37.460;2023-02-10T04:46:26;99764.50;;;-3.02;98.04
58295;BME280;45705;55.592;37.460;2023-02-10T04:48:52;99744.03;;;-3.22;97.69
58295;BME280;45705;55.592;37.460;2023-02-10T04:51:18;99774.13;;;-3.01;98.01
58295;BME280;45705;55.592;37.460;2023-02-10T04:53:44;99742.19;;;-3.01;97.45
58295;BME280;45705;55.592;37.460;2023-02-10T04:56:13;99759.78;;;-2.67;96.46
58295;BME280;45705;55.592;37.460;2023-02-10T04:58:39;99720.50;;;-3.25;97.36
58295;BME280;45705;55.592;37.460;2023-02-10T05:01:05;99756.94;;;-2.79;96.64
58295;BME280;45705;55.592;37.460;2023-02-10T05:03:32;99752.81;;;-2.81;96.22
58295;BME280;45705;55.592;37.460;2023-02-10T05:06:06;99754.28;;;-3.05;97.78
58295;BME280;45705;55.592;37.460;2023-02-10T05:08:33;99742.63;;;-3.18;98.77
58295;BME280;45705;55.592;37.460;2023-02-10T05:10:58;99750.00;;;-3.06;98.67
58295;BME280;45705;55.592;37.460;2023-02-10T05:13:24;99760.81;;;-3.01;98.13
58295;BME280;45705;55.592;37.460;2023-02-10T05:15:50;99737.28;;;-2.84;97.30
58295;BME280;45705;55.592;37.460;2023-02-10T05:18:16;99747.31;;;-3.06;97.58
58295;BME280;45705;55.592;37.460;2023-02-10T05:20:43;99744.44;;;-2.91;96.99
58295;BME280;45705;55.592;37.460;2023-02-10T05:23:09;99743.84;;;-2.87;96.94
58295;BME280;45705;55.592;37.460;2023-02-10T05:25:35;99736.25;;;-3.30;98.68
58295;BME280;45705;55.592;37.460;2023-02-10T05:28:02;99737.69;;;-2.87;97.91
58295;BME280;45705;55.592;37.460;2023-02-10T05:30:28;99719.09;;;-3.14;97.95
58295;BME280;45705;55.592;37.460;2023-02-10T05:32:54;99720.91;;;-3.01;98.05
58295;BME280;45705;55.592;37.460;2023-02-10T05:35:20;99722.56;;;-3.00;96.80
58295;BME280;45705;55.592;37.460;2023-02-10T05:37:45;99717.66;;;-2.97;97.01
58295;BME280;45705;55.592;37.460;2023-02-10T05:40:11;99725.59;;;-3.50;98.67
58295;BME280;45705;55.592;37.460;2023-02-10T05:42:38;99712.13;;;-3.22;99.63
58295;BME280;45705;55.592;37.460;2023-02-10T05:45:04;99706.00;;;-3.15;97.88
58295;BME280;45705;55.592;37.460;2023-02-10T05:47:30;99696.38;;;-3.17;96.37
58295;BME280;45705;55.592;37.460;2023-02-10T05:49:57;99705.31;;;-2.64;94.24
58295;BME280;45705;55.592;37.460;2023-02-10T05:52:24;99692.09;;;-2.26;90.40
58295;BME280;45705;55.592;37.460;2023-02-10T05:54:50;99686.94;;;-1.75;87.10
58295;BME280;45705;55.592;37.460;2023-02-10T05:57:16;99704.81;;;-1.51;84.69
58295;BME280;45705;55.592;37.460;2023-02-10T05:59:42;99704.91;;;-1.07;82.37
58295;BME280;45705;55.592;37.460;2023-02-10T06:02:08;99697.22;;;-1.47;83.93
58295;BME280;45705;55.592;37.460;2023-02-10T06:04:34;99680.34;;;-2.70;88.81
58295;BME280;45705;55.592;37.460;2023-02-10T06:07:00;99690.59;;;-2.67;89.95
58295;BME280;45705;55.592;37.460;2023-02-10T06:09:26;99679.97;;;-2.80;91.17
58295;BME280;45705;55.592;37.460;2023-02-10T06:11:53;99674.63;;;-2.67;91.01
58295;BME280;45705;55.592;37.460;2023-02-10T06:14:19;99654.59;;;-2.89;90.71
58295;BME280;45705;55.592;37.460;2023-02-10T06:16:46;99667.75;;;-2.36;89.24
58295;BME280;45705;55.592;37.460;2023-02-10T06:19:12;99672.91;;;-1.64;83.13
58295;BME280;45705;55.592;37.460;2023-02-10T06:21:38;99663.06;;;-1.64;83.18
58295;BME280;45705;55.592;37.460;2023-02-10T06:24:04;99650.25;;;-0.61;79.34
58295;BME280;45705;55.592;37.460;2023-02-10T06:26:30;99638.28;;;-1.39;78.38
58295;BME280;45705;55.592;37.460;2023-02-10T06:28:57;99658.41;;;-1.75;82.50
58295;BME280;45705;55.592;37.460;2023-02-10T06:31:23;99640.84;;;-2.21;84.38
58295;BME280;45705;55.592;37.460;2023-02-10T06:33:50;99622.41;;;-1.59;82.58
58295;BME280;45705;55.592;37.460;2023-02-10T06:36:16;99640.06;;;-0.34;76.57
58295;BME280;45705;55.592;37.460;2023-02-10T06:38:42;99628.94;;;-0.01;72.35
58295;BME280;45705;55.592;37.460;2023-02-10T06:41:10;99637.91;;;-0.62;73.59
58295;BME280;45705;55.592;37.460;2023-02-10T06:43:36;99652.16;;;-0.87;76.27
58295;BME280;45705;55.592;37.460;2023-02-10T06:46:02;99582.53;;;-0.06;72.20
58295;BME280;45705;55.592;37.460;2023-02-10T06:48:28;99614.59;;;-0.06;71.21
58295;BME280;45705;55.592;37.460;2023-02-10T06:50:54;99610.91;;;-1.53;77.90
58295;BME280;45705;55.592;37.460;2023-02-10T06:53:21;99586.75;;;-0.96;76.33
58295;BME280;45705;55.592;37.460;2023-02-10T06:55:47;99580.66;;;-1.22;77.85
58295;BME280;45705;55.592;37.460;2023-02-10T06:58:14;99557.50;;;-1.46;79.21
58295;BME280;45705;55.592;37.460;2023-02-10T07:00:40;99558.59;;;-1.79;80.87
58295;BME280;45705;55.592;37.460;2023-02-10T07:03:06;99560.44;;;-2.05;82.26
58295;BME280;45705;55.592;37.460;2023-02-10T07:05:32;99529.75;;;-2.14;82.17
58295;BME280;45705;55.592;37.460;2023-02-10T07:08:02;99546.31;;;-1.80;81.49
58295;BME280;45705;55.592;37.460;2023-02-10T07:10:32;99522.63;;;-2.52;85.23
58295;BME280;45705;55.592;37.460;2023-02-10T07:12:59;99507.56;;;-2.08;81.94
58295;BME280;45705;55.592;37.460;2023-02-10T07:15:25;99518.06;;;-0.40;75.97
58295;BME280;45705;55.592;37.460;2023-02-10T07:17:51;99519.88;;;-1.01;76.00
58295;BME280;45705;55.592;37.460;2023-02-10T07:20:21;99454.88;;;-0.76;73.43
58295;BME280;45705;55.592;37.460;2023-02-10T07:22:47;99493.28;;;-0.59;71.92
58295;BME280;45705;55.592;37.460;2023-02-10T07:25:13;99493.66;;;-0.44;72.11
58295;BME280;45705;55.592;37.460;2023-02-10T07:27:39;99496.53;;;-0.15;70.10
58295;BME280;45705;55.592;37.460;2023-02-10T07:30:05;99505.88;;;0.18;69.03
58295;BME280;45705;55.592;37.460;2023-02-10T07:32:32;99500.13;;;-0.82;71.25
58295;BME280;45705;55.592;37.460;2023-02-10T07:34:58;99497.84;;;-0.48;71.65
58295;BME280;45705;55.592;37.460;2023-02-10T07:37:25;99474.97;;;0.10;69.30
58295;BME280;45705;55.592;37.460;2023-02-10T07:39:52;99444.22;;;-0.76;70.72
58295;BME280;45705;55.592;37.460;2023-02-10T07:42:19;99493.59;;;-0.86;72.40
58295;BME280;45705;55.592;37.460;2023-02-10T07:45:10;99478.19;;;-0.84;73.70
58295;BME280;45705;55.592;37.460;2023-02-10T07:47:36;99469.56;;;-0.67;72.90
58295;BME280;45705;55.592;37.460;2023-02-10T07:50:03;99458.28;;;-1.00;72.01
58295;BME280;45705;55.592;37.460;2023-02-10T07:52:29;99458.97;;;-1.23;74.54
58295;BME280;45705;55.592;37.460;2023-02-10T07:54:55;99439.22;;;-1.03;73.35
58295;BME280;45705;55.592;37.460;2023-02-10T07:57:23;99465.63;;;-0.95;74.28
58295;BME280;45705;55.592;37.460;2023-02-10T07:59:50;99452.34;;;-1.02;74.27
58295;BME280;45705;55.592;37.460;2023-02-10T08:02:16;99445.84;;;-1.06;73.98
58295;BME280;45705;55.592;37.460;2023-02-10T08:04:42;99453.34;;;-1.70;77.27
58295;BME280;45705;55.592;37.460;2023-02-10T08:07:08;99444.59;;;-1.22;75.54
58295;BME280;45705;55.592;37.460;2023-02-10T08:09:33;99454.88;;;-1.44;76.21
58295;BME280;45705;55.592;37.460;2023-02-10T08:11:59;99449.25;;;-0.98;74.73
58295;BME280;45705;55.592;37.460;2023-02-10T08:14:28;99447.03;;;-0.71;72.82
58295;BME280;45705;55.592;37.460;2023-02-10T08:16:54;99440.03;;;-0.42;71.00
58295;BME280;45705;55.592;37.460;2023-02-10T08:19:21;99436.69;;;-0.14;69.66
58295;BME280;45705;55.592;37.460;2023-02-10T08:21:47;99436.53;;;-0.85;71.30
58295;BME280;45705;55.592;37.460;2023-02-10T08:24:13;99443.19;;;-0.75;71.88
58295;BME280;45705;55.592;37.460;2023-02-10T08:26:39;99445.19;;;-0.59;70.93
58295;BME280;45705;55.592;37.460;2023-02-10T08:29:07;99443.03;;;-0.81;71.51
58295;BME280;45705;55.592;37.460;2023-02-10T08:31:33;99439.53;;;-0.51;70.66
58295;BME280;45705;55.592;37.460;2023-02-10T08:33:59;99438.66;;;-0.33;70.31
58295;BME280;45705;55.592;37.460;2023-02-10T08:36:25;99431.47;;;-0.21;69.03
58295;BME280;45705;55.592;37.460;2023-02-10T08:38:51;99424.59;;;-0.28;67.90
58295;BME280;45705;55.592;37.460;2023-02-10T08:41:17;99429.22;;;-0.35;67.75
58295;BME280;45705;55.592;37.460;2023-02-10T08:43:44;99415.25;;;-0.61;69.24
58295;BME280;45705;55.592;37.460;2023-02-10T08:46:11;99410.19;;;-0.27;68.07
58295;BME280;45705;55.592;37.460;2023-02-10T08:48:37;99411.00;;;-0.27;66.84
58295;BME280;45705;55.592;37.460;2023-02-10T08:51:08;99408.22;;;0.27;64.63
58295;BME280;45705;55.592;37.460;2023-02-10T08:53:35;99407.19;;;0.16;63.20
58295;BME280;45705;55.592;37.460;2023-02-10T08:56:05;99401.38;;;-0.16;64.18
58295;BME280;45705;55.592;37.460;2023-02-10T08:58:32;99386.97;;;0.09;64.10
58295;BME280;45705;55.592;37.460;2023-02-10T09:00:59;99368.25;;;0.09;62.76
58295;BME280;45705;55.592;37.460;2023-02-10T09:03:25;99377.41;;;0.13;62.41
58295;BME280;45705;55.592;37.460;2023-02-10T09:05:52;99380.22;;;0.18;61.85
58295;BME280;45705;55.592;37.460;2023-02-10T09:08:20;99377.72;;;0.40;61.34
58295;BME280;45705;55.592;37.460;2023-02-10T09:10:46;99362.38;;;0.47;60.43
58295;BME280;45705;55.592;37.460;2023-02-10T09:13:12;99343.94;;;0.22;59.39
58295;BME280;45705;55.592;37.460;2023-02-10T09:15:40;99324.19;;;-0.01;60.90
58295;BME280;45705;55.592;37.460;2023-02-10T09:18:07;99337.19;;;0.08;60.59
58295;BME280;45705;55.592;37.460;2023-02-10T09:20:34;99328.09;;;0.32;60.32
58295;BME280;45705;55.592;37.460;2023-02-10T09:23:00;99317.13;;;-0.18;61.83
58295;BME280;45705;55.592;37.460;2023-02-10T09:25:27;99309.13;;;-0.30;62.64
58295;BME280;45705;55.592;37.460;2023-02-10T09:27:53;99305.50;;;-0.12;62.38
58295;BME280;45705;55.592;37.460;2023-02-10T09:30:22;99307.16;;;-0.35;62.35
58295;BME280;45705;55.592;37.460;2023-02-10T09:32:49;99304.22;;;-0.10;61.55
58295;BME280;45705;55.592;37.460;2023-02-10T09:35:15;99306.69;;;-0.55;63.55
58295;BME280;45705;55.592;37.460;2023-02-10T09:37:40;99276.16;;;-0.83;64.47
58295;BME280;45705;55.592;37.460;2023-02-10T09:40:07;99284.41;;;-0.61;64.72
58295;BME280;45705;55.592;37.460;2023-02-10T09:45:24;99251.50;;;-0.14;61.53
58295;BME280;45705;55.592;37.460;2023-02-10T09:47:51;99274.19;;;-0.29;61.15
58295;BME280;45705;55.592;37.460;2023-02-10T09:53:16;99277.94;;;0.11;60.71
58295;BME280;45705;55.592;37.460;2023-02-10T09:55:52;99286.59;;;-0.34;61.61
58295;BME280;45705;55.592;37.460;2023-02-10T10:00:54;99297.44;;;0.11;61.12
58295;BME280;45705;55.592;37.460;2023-02-10T10:03:35;99303.19;;;0.44;58.98
58295;BME280;45705;55.592;37.460;2023-02-10T10:06:46;99300.91;;;0.52;58.10
58295;BME280;45705;55.592;37.460;2023-02-10T10:11:50;99295.78;;;0.63;57.60
58295;BME280;45705;55.592;37.460;2023-02-10T10:14:24;99294.59;;;0.42;58.62
58295;BME280;45705;55.592;37.460;2023-02-10T10:29:55;99258.44;;;-0.02;59.34
58295;BME280;45705;55.592;37.460;2023-02-10T10:32:47;99248.91;;;0.03;60.15
58295;BME280;45705;55.592;37.460;2023-02-10T10:35:21;99227.38;;;-0.55;60.66
58295;BME280;45705;55.592;37.460;2023-02-10T10:37:49;99230.81;;;-0.19;60.53
58295;BME280;45705;55.592;37.460;2023-02-10T10:40:22;99229.72;;;-0.06;59.68
58295;BME280;45705;55.592;37.460;2023-02-10T10:42:52;99222.91;;;-0.14;59.66
58295;BME280;45705;55.592;37.460;2023-02-10T10:45:42;99204.09;;;-0.19;59.49
58295;BME280;45705;55.592;37.460;2023-02-10T10:48:25;99211.97;;;0.28;58.22
58295;BME280;45705;55.592;37.460;2023-02-10T10:50:57;99205.25;;;-0.15;57.47
58295;BME280;45705;55.592;37.460;2023-02-10T10:53:42;99172.81;;;-0.07;57.29
58295;BME280;45705;55.592;37.460;2023-02-10T10:56:17;99199.59;;;0.10;56.62
58295;BME280;45705;55.592;37.460;2023-02-10T10:58:47;99178.94;;;-0.35;58.51
58295;BME280;45705;55.592;37.460;2023-02-10T11:01:29;99193.03;;;-0.11;57.83
58295;BME280;45705;55.592;37.460;2023-02-10T11:06:35;99173.56;;;0.06;57.21
58295;BME280;45705;55.592;37.460;2023-02-10T11:09:04;99174.34;;;0.18;56.32
58295;BME280;45705;55.592;37.460;2023-02-10T11:11:41;99176.00;;;-0.33;57.18
58295;BME280;45705;55.592;37.460;2023-02-10T11:14:18;99176.72;;;0.03;57.03
58295;BME280;45705;55.592;37.460;2023-02-10T11:16:53;99166.31;;;0.18;56.12
58295;BME280;45705;55.592;37.460;2023-02-10T11:19:25;99173.94;;;0.26;55.72
58295;BME280;45705;55.592;37.460;2023-02-10T11:21:52;99157.94;;;0.60;54.40
58295;BME280;45705;55.592;37.460;2023-02-10T11:24:32;99165.56;;;0.51;54.06
58295;BME280;45705;55.592;37.460;2023-02-10T11:27:04;99163.13;;;0.50;53.39
58295;BME280;45705;55.592;37.460;2023-02-10T11:29:35;99154.53;;;0.48;53.47
58295;BME280;45705;55.592;37.460;2023-02-10T11:32:05;99151.31;;;0.63;53.27
58295;BME280;45705;55.592;37.460;2023-02-10T11:34:42;99133.94;;;0.65;51.65
58295;BME280;45705;55.592;37.460;2023-02-10T11:37:12;99140.13;;;0.49;52.03
58295;BME280;45705;55.592;37.460;2023-02-10T11:39:40;99140.59;;;0.63;52.41
58295;BME280;45705;55.592;37.460;2023-02-10T11:42:27;99126.16;;;0.30;52.87
58295;BME280;45705;55.592;37.460;2023-02-10T11:47:31;99130.84;;;0.73;52.00
58295;BME280;45705;55.592;37.460;2023-02-10T11:49:57;99136.38;;;0.50;52.08
58295;BME280;45705;55.592;37.460;2023-02-10T11:52:29;99139.69;;;0.57;52.02
58295;BME280;45705;55.592;37.460;2023-02-10T11:54:59;99137.34;;;0.77;51.77
58295;BME280;45705;55.592;37.460;2023-02-10T11:57:42;99123.97;;;0.61;51.61
58295;BME280;45705;55.592;37.460;2023-02-10T12:01:06;99104.84;;;0.52;52.43
58295;BME280;45705;55.592;37.460;2023-02-10T12:03:46;99110.59;;;0.44;52.64
58295;BME280;45705;55.592;37.460;2023-02-10T12:09:00;99094.06;;;0.47;52.50
58295;BME280;45705;55.592;37.460;2023-02-10T12:12:14;99098.59;;;0.29;53.06
58295;BME280;45705;55.592;37.460;2023-02-10T12:17:52;99088.47;;;0.31;52.45
58295;BME280;45705;55.592;37.460;2023-02-10T12:28:57;99075.84;;;-0.19;54.64
58295;BME280;45705;55.592;37.460;2023-02-10T12:42:47;99050.34;;;-0.10;54.68
58295;BME280;45705;55.592;37.460;2023-02-10T12:53:26;99046.16;;;-0.06;54.58
58295;BME280;45705;55.592;37.460;2023-02-10T12:58:26;99073.19;;;-0.19;55.25
58295;BME280;45705;55.592;37.460;2023-02-10T13:01:05;99080.22;;;-0.13;55.79
58295;BME280;45705;55.592;37.460;2023-02-10T13:03:38;99066.78;;;-0.18;55.70
58295;BME280;45705;55.592;37.460;2023-02-10T13:06:25;99057.81;;;-0.41;56.16
58295;BME280;45705;55.592;37.460;2023-02-10T13:09:17;99048.56;;;-0.50;57.41
58295;BME280;45705;55.592;37.460;2023-02-10T13:14:30;99013.31;;;-0.35;56.84
58295;BME280;45705;55.592;37.460;2023-02-10T13:16:58;99025.84;;;-0.64;57.90
58295;BME280;45705;55.592;37.460;2023-02-10T13:22:06;99025.72;;;-0.57;58.06
58295;BME280;45705;55.592;37.460;2023-02-10T13:27:21;99027.72;;;-0.65;58.51
58295;BME280;45705;55.592;37.460;2023-02-10T13:35:26;99023.28;;;-0.59;58.48
58295;BME280;45705;55.592;37.460;2023-02-10T13:37:57;99027.03;;;-0.60;59.25
58295;BME280;45705;55.592;37.460;2023-02-10T13:40:33;99023.47;;;-0.49;58.95
58295;BME280;45705;55.592;37.460;2023-02-10T13:43:03;99034.44;;;-0.62;59.79
58295;BME280;45705;55.592;37.460;2023-02-10T13:45:31;99043.50;;;-0.63;59.59
58295;BME280;45705;55.592;37.460;2023-02-10T13:48:01;99039.19;;;-0.64;59.67
58295;BME280;45705;55.592;37.460;2023-02-10T13:50:42;99037.69;;;-0.60;59.58
58295;BME280;45705;55.592;37.460;2023-02-10T13:59:04;99035.91;;;-0.54;59.83
58295;BME280;45705;55.592;37.460;2023-02-10T14:01:50;99032.72;;;-0.68;60.21
58295;BME280;45705;55.592;37.460;2023-02-10T14:04:38;99044.19;;;-0.56;60.40
58295;BME280;45705;55.592;37.460;2023-02-10T14:15:27;99022.41;;;-0.76;61.11
58295;BME280;45705;55.592;37.460;2023-02-10T14:18:00;99035.88;;;-0.71;61.50
58295;BME280;45705;55.592;37.460;2023-02-10T14:20:33;99032.63;;;-0.73;61.31
58295;BME280;45705;55.592;37.460;2023-02-10T14:23:00;99015.94;;;-0.81;61.44
58295;BME280;45705;55.592;37.460;2023-02-10T14:25:38;99022.31;;;-0.82;62.44
58295;BME280;45705;55.592;37.460;2023-02-10T14:28:17;99015.56;;;-0.72;62.00
58295;BME280;45705;55.592;37.460;2023-02-10T14:30:45;99015.56;;;-0.72;61.99
58295;BME280;45705;55.592;37.460;2023-02-10T14:33:30;99016.13;;;-0.70;61.96
58295;BME280;45705;55.592;37.460;2023-02-10T14:35:59;99010.44;;;-0.74;61.83
58295;BME280;45705;55.592;37.460;2023-02-10T14:38:32;99017.75;;;-0.69;61.78
58295;BME280;45705;55.592;37.460;2023-02-10T14:41:01;99022.06;;;-0.80;62.61
58295;BME280;45705;55.592;37.460;2023-02-10T14:43:32;99002.59;;;-0.81;62.56
58295;BME280;45705;55.592;37.460;2023-02-10T14:46:01;99031.75;;;-0.62;62.05
58295;BME280;45705;55.592;37.460;2023-02-10T14:48:28;99022.56;;;-0.54;61.78
58295;BME280;45705;55.592;37.460;2023-02-10T14:51:17;99023.19;;;-0.35;61.73
58295;BME280;45705;55.592;37.460;2023-02-10T14:53:44;99021.84;;;-0.50;61.60
58295;BME280;45705;55.592;37.460;2023-02-10T14:56:37;98994.31;;;-0.67;62.02
58295;BME280;45705;55.592;37.460;2023-02-10T14:59:03;99010.69;;;-0.47;61.86
58295;BME280;45705;55.592;37.460;2023-02-10T15:01:35;99022.91;;;-0.51;62.40
58295;BME280;45705;55.592;37.460;2023-02-10T15:04:01;99021.75;;;-0.55;62.16